Time;durP1;ratioP1;P1;durP2;ratioP2;P2;SDS_P1;SDS_P2;PMS_P1;PMS_P2;Temp;Humidity;BMP_temperature;BMP_pressure;BME280_temperature;BME280_humidity;BME280_pressure;Samples;Min_cycle;Max_cycle;Signal;HPM_P1;HPM_P2
2022/03/09 00:00:33;;;;;;;21.38;12.38;;;-0.80;41.10;;;;;;5029820;28;20209;-63
2022/03/09 00:03:01;;;;;;;18.75;12.05;;;-0.90;40.70;;;;;;5030254;28;20195;-64
2022/03/09 00:05:28;;;;;;;22.35;12.23;;;-0.80;40.80;;;;;;5023887;28;20246;-64
2022/03/09 00:07:55;;;;;;;20.38;12.15;;;-0.80;40.80;;;;;;5021444;28;20187;-64
2022/03/09 00:10:22;;;;;;;17.98;12.90;;;-0.90;40.90;;;;;;5025143;28;20583;-63
2022/03/09 00:12:49;;;;;;;19.10;11.38;;;-0.80;40.80;;;;;;5016751;28;20264;-65
2022/03/09 00:15:18;;;;;;;17.60;11.18;;;-0.80;41.00;;;;;;5021885;28;20223;-64
2022/03/09 00:17:45;;;;;;;19.92;11.90;;;-0.80;40.90;;;;;;5027705;28;20183;-64
2022/03/09 00:20:12;;;;;;;17.33;10.95;;;-0.80;40.80;;;;;;5025415;28;20194;-63
2022/03/09 00:22:39;;;;;;;20.58;12.15;;;-0.90;40.80;;;;;;5014942;28;20183;-63
2022/03/09 00:25:07;;;;;;;18.98;11.38;;;-0.90;40.50;;;;;;5030118;28;20199;-63
2022/03/09 00:27:34;;;;;;;17.83;10.63;;;-0.90;40.40;;;;;;5014741;28;20231;-64
2022/03/09 00:30:02;;;;;;;23.00;12.07;;;-0.90;40.90;;;;;;5027976;28;20187;-63
2022/03/09 00:32:30;;;;;;;18.30;10.43;;;-0.90;41.70;;;;;;5017243;28;20302;-63
2022/03/09 00:34:57;;;;;;;17.75;10.77;;;-0.90;41.30;;;;;;5012749;28;20298;-63
2022/03/09 00:37:24;;;;;;;23.88;12.10;;;-1.00;41.20;;;;;;5012068;28;20261;-63
2022/03/09 00:39:51;;;;;;;16.70;10.40;;;-1.00;41.60;;;;;;5024272;28;20195;-64
2022/03/09 00:42:18;;;;;;;16.95;9.30;;;-1.00;41.60;;;;;;5025233;28;20184;-64
2022/03/09 00:44:46;;;;;;;16.25;10.10;;;-0.90;42.00;;;;;;5013095;28;20643;-64
2022/03/09 00:47:13;;;;;;;13.32;8.77;;;-1.00;42.10;;;;;;5031515;28;20266;-63
2022/03/09 00:49:41;;;;;;;14.07;7.93;;;-1.00;42.80;;;;;;5026351;28;20254;-63
2022/03/09 00:52:08;;;;;;;17.08;9.60;;;-1.10;42.60;;;;;;5011738;28;20686;-64
2022/03/09 00:54:35;;;;;;;15.15;9.98;;;-1.10;42.50;;;;;;5019391;28;20199;-64
2022/03/09 00:57:02;;;;;;;13.57;9.15;;;-1.00;42.50;;;;;;5023462;28;20210;-64
2022/03/09 00:59:29;;;;;;;14.77;9.52;;;-1.00;42.50;;;;;;5011718;28;20192;-64
2022/03/09 01:01:56;;;;;;;18.55;9.27;;;-0.90;43.10;;;;;;5029418;28;20212;-63
2022/03/09 01:04:23;;;;;;;14.80;8.65;;;-1.00;43.00;;;;;;5026107;28;20238;-63
2022/03/09 01:06:52;;;;;;;17.73;11.18;;;-1.00;43.30;;;;;;5015121;28;20203;-63
2022/03/09 01:09:19;;;;;;;16.30;10.57;;;-1.00;42.90;;;;;;5021975;28;20188;-63
2022/03/09 01:11:46;;;;;;;18.23;11.15;;;-1.00;42.70;;;;;;5034584;28;20276;-68
2022/03/09 01:14:13;;;;;;;23.15;12.50;;;-1.00;42.80;;;;;;5021840;28;20227;-63
2022/03/09 01:16:40;;;;;;;26.67;13.95;;;-1.10;42.80;;;;;;5030823;28;20187;-67
2022/03/09 01:19:07;;;;;;;19.50;10.65;;;-1.10;42.60;;;;;;5033427;28;20183;-69
2022/03/09 01:21:35;;;;;;;17.50;10.73;;;-1.20;42.70;;;;;;5026899;28;20188;-63
2022/03/09 01:24:04;;;;;;;15.55;10.00;;;-1.10;43.30;;;;;;5023196;28;20183;-64
2022/03/09 01:26:31;;;;;;;16.77;10.50;;;-1.20;43.00;;;;;;5014864;28;20299;-63
2022/03/09 01:28:58;;;;;;;17.13;9.95;;;-1.30;43.00;;;;;;5032917;28;20183;-64
2022/03/09 01:31:25;;;;;;;19.17;11.52;;;-1.40;43.40;;;;;;5028623;28;20556;-64
2022/03/09 01:33:52;;;;;;;16.40;9.32;;;-1.40;43.30;;;;;;5014953;28;20199;-64
2022/03/09 01:36:19;;;;;;;16.20;10.82;;;-1.40;43.30;;;;;;5027804;28;20195;-64
2022/03/09 01:38:46;;;;;;;20.38;10.18;;;-1.40;43.10;;;;;;5034535;28;20191;-64
2022/03/09 01:41:15;;;;;;;17.30;10.52;;;-1.40;43.10;;;;;;5019978;28;20199;-63
2022/03/09 01:43:42;;;;;;;16.38;10.73;;;-1.50;43.40;;;;;;5014635;28;20230;-64
2022/03/09 01:46:09;;;;;;;20.38;9.85;;;-1.60;43.80;;;;;;5017292;28;20270;-63
2022/03/09 01:48:36;;;;;;;18.45;9.68;;;-1.60;44.50;;;;;;5025662;28;20258;-63
2022/03/09 01:51:03;;;;;;;17.88;9.68;;;-1.60;44.30;;;;;;5022909;28;20275;-64
2022/03/09 01:53:30;;;;;;;17.58;11.10;;;-1.60;44.10;;;;;;5024873;28;20265;-63
2022/03/09 01:55:57;;;;;;;15.93;9.38;;;-1.60;44.40;;;;;;5025157;28;20678;-63
2022/03/09 01:58:26;;;;;;;16.02;9.38;;;-1.60;44.80;;;;;;5014437;28;20631;-64
2022/03/09 02:00:53;;;;;;;16.00;8.88;;;-1.60;45.00;;;;;;5031415;28;20201;-64
2022/03/09 02:03:20;;;;;;;15.77;9.48;;;-1.60;44.60;;;;;;5034021;28;20199;-65
2022/03/09 02:05:48;;;;;;;14.05;9.20;;;-1.70;44.50;;;;;;5016902;28;20594;-64
2022/03/09 02:11:00;;;;;;;14.43;7.90;;;-1.70;45.20;;;;;;5015989;28;20194;-63
2022/03/09 02:13:29;;;;;;;13.38;9.20;;;-1.70;45.30;;;;;;5013879;28;20258;-65
2022/03/09 02:15:56;;;;;;;12.63;9.57;;;-1.70;45.10;;;;;;5029757;28;20223;-64
2022/03/09 02:18:23;;;;;;;16.20;8.23;;;-1.70;45.60;;;;;;5021846;28;20668;-64
2022/03/09 02:20:53;;;;;;;16.92;10.07;;;-1.80;45.20;;;;;;5021817;28;20199;-63
2022/03/09 02:23:21;;;;;;;14.90;8.48;;;-1.80;45.30;;;;;;5021385;28;20278;-65
2022/03/09 02:25:49;;;;;;;12.55;8.40;;;-1.80;45.50;;;;;;5013952;28;20184;-65
2022/03/09 02:28:16;;;;;;;14.00;8.93;;;-1.80;45.30;;;;;;5013887;28;20196;-64
2022/03/09 02:30:43;;;;;;;17.38;9.40;;;-1.90;45.50;;;;;;5024528;28;20187;-64
2022/03/09 02:33:10;;;;;;;15.65;7.85;;;-1.90;45.80;;;;;;5031831;28;20219;-64
2022/03/09 02:35:37;;;;;;;16.88;8.48;;;-1.90;45.90;;;;;;5026246;28;20215;-64
2022/03/09 02:38:04;;;;;;;13.85;8.80;;;-1.90;45.60;;;;;;5013554;28;20669;-64
2022/03/09 02:40:32;;;;;;;16.20;8.88;;;-1.90;45.80;;;;;;5014368;28;20180;-64
2022/03/09 02:42:59;;;;;;;53.25;11.38;;;-1.90;46.20;;;;;;5013713;28;20241;-64
2022/03/09 02:45:27;;;;;;;14.07;9.07;;;-1.90;46.70;;;;;;5027487;28;20187;-64
2022/03/09 02:47:54;;;;;;;13.93;8.13;;;-2.00;46.70;;;;;;5032644;28;20222;-64
2022/03/09 02:50:21;;;;;;;14.68;8.10;;;-2.10;46.80;;;;;;5023339;28;20291;-64
2022/03/09 02:52:48;;;;;;;12.57;8.00;;;-2.10;47.10;;;;;;5013158;28;20654;-64
2022/03/09 02:55:16;;;;;;;14.57;9.70;;;-2.10;46.80;;;;;;5028956;28;20199;-65
2022/03/09 02:57:45;;;;;;;14.50;8.73;;;-2.10;46.30;;;;;;5016573;28;20636;-64
2022/03/09 03:00:13;;;;;;;14.70;9.25;;;-2.20;46.30;;;;;;5019621;28;20180;-64
2022/03/09 03:02:41;;;;;;;17.10;8.95;;;-2.20;46.30;;;;;;5013026;28;20230;-65
2022/03/09 03:05:09;;;;;;;15.98;7.20;;;-2.30;45.70;;;;;;5024057;28;20206;-64
2022/03/09 03:07:36;;;;;;;13.70;7.97;;;-2.30;46.90;;;;;;5032363;28;20199;-64
2022/03/09 03:10:03;;;;;;;16.83;9.55;;;-2.30;47.30;;;;;;5026028;28;20600;-64
2022/03/09 03:12:31;;;;;;;15.30;7.90;;;-2.30;47.30;;;;;;5032540;28;20293;-64
2022/03/09 03:14:59;;;;;;;12.40;8.85;;;-2.30;47.30;;;;;;5015094;28;20281;-64
2022/03/09 03:17:26;;;;;;;13.15;7.45;;;-2.30;47.50;;;;;;5016780;28;20270;-64
2022/03/09 03:19:53;;;;;;;13.25;8.05;;;-2.30;47.30;;;;;;5027699;28;20187;-63
2022/03/09 03:22:20;;;;;;;21.52;12.20;;;-2.30;47.10;;;;;;5012732;28;20223;-64
2022/03/09 03:24:47;;;;;;;16.38;10.07;;;-2.30;47.10;;;;;;5024700;28;20194;-64
2022/03/09 03:27:14;;;;;;;15.05;8.98;;;-2.30;46.70;;;;;;5032177;28;20195;-65
2022/03/09 03:29:41;;;;;;;15.55;9.85;;;-2.40;46.30;;;;;;5031783;28;20195;-66
2022/03/09 03:32:11;;;;;;;16.25;9.95;;;-2.40;46.50;;;;;;5030522;28;20184;-63
2022/03/09 03:34:38;;;;;;;15.15;8.68;;;-2.40;46.60;;;;;;5030761;28;20198;-64
2022/03/09 03:37:05;;;;;;;16.70;9.20;;;-2.40;46.70;;;;;;5012295;28;20342;-64
2022/03/09 03:39:32;;;;;;;13.63;9.20;;;-2.50;46.40;;;;;;5012663;28;20537;-64
2022/03/09 03:41:59;;;;;;;13.98;8.18;;;-2.50;47.10;;;;;;5012555;28;20195;-63
2022/03/09 03:44:27;;;;;;;15.75;8.98;;;-2.50;46.50;;;;;;5012103;28;20203;-65
2022/03/09 03:46:54;;;;;;;14.77;8.30;;;-2.50;46.20;;;;;;5031644;28;20206;-64
2022/03/09 03:49:22;;;;;;;11.60;8.02;;;-2.60;47.00;;;;;;5016757;28;20266;-64
2022/03/09 03:51:49;;;;;;;15.52;10.13;;;-2.60;47.30;;;;;;5026982;28;20198;-64
2022/03/09 03:54:16;;;;;;;13.55;8.13;;;-2.70;47.20;;;;;;5032433;28;20649;-63
2022/03/09 03:56:45;;;;;;;12.65;8.90;;;-2.70;47.20;;;;;;5028768;28;20230;-64
2022/03/09 03:59:12;;;;;;;17.25;8.98;;;-2.80;47.40;;;;;;5013559;28;20191;-63
2022/03/09 04:01:39;;;;;;;17.95;9.90;;;-2.90;47.80;;;;;;5027494;28;20198;-63
2022/03/09 04:04:06;;;;;;;15.00;9.95;;;-2.90;47.20;;;;;;5027038;28;20219;-63
2022/03/09 04:06:34;;;;;;;13.10;8.55;;;-2.90;47.00;;;;;;5012350;28;20234;-64
2022/03/09 04:09:01;;;;;;;14.85;7.97;;;-2.90;46.80;;;;;;5016049;28;20191;-63
2022/03/09 04:11:28;;;;;;;15.90;8.50;;;-2.90;46.80;;;;;;5017948;28;20249;-64
2022/03/09 04:13:55;;;;;;;12.10;7.82;;;-2.90;46.90;;;;;;5014475;28;21290;-63
2022/03/09 04:16:22;;;;;;;15.40;10.30;;;-3.00;47.00;;;;;;5031860;28;20641;-63
2022/03/09 04:18:49;;;;;;;13.00;8.40;;;-3.00;47.80;;;;;;5030638;28;20206;-64
2022/03/09 04:21:16;;;;;;;11.95;7.60;;;-3.00;48.10;;;;;;5017873;28;20192;-64
2022/03/09 04:23:45;;;;;;;14.07;8.27;;;-3.10;47.50;;;;;;5027354;28;20750;-65
2022/03/09 04:26:12;;;;;;;12.88;8.00;;;-3.10;47.50;;;;;;5026873;28;20188;-63
2022/03/09 04:28:39;;;;;;;12.18;8.68;;;-3.20;48.00;;;;;;5021936;28;20192;-63
2022/03/09 04:31:06;;;;;;;14.10;8.10;;;-3.20;48.00;;;;;;5031365;28;20187;-63
2022/03/09 04:33:33;;;;;;;17.95;9.02;;;-3.30;48.40;;;;;;5031325;28;20200;-64
2022/03/09 04:36:00;;;;;;;13.32;9.45;;;-3.50;48.70;;;;;;5026836;28;20188;-63
2022/03/09 04:38:27;;;;;;;18.00;8.80;;;-3.50;48.80;;;;;;5029303;28;20278;-63
2022/03/09 04:40:56;;;;;;;11.95;7.15;;;-3.50;48.60;;;;;;5023787;28;20230;-64
2022/03/09 04:43:23;;;;;;;13.32;9.75;;;-3.40;48.60;;;;;;5022087;28;20229;-63
2022/03/09 04:45:50;;;;;;;15.40;7.90;;;-3.40;48.80;;;;;;5035433;28;20187;-64
2022/03/09 04:48:17;;;;;;;17.23;7.95;;;-3.50;49.40;;;;;;5022212;28;20192;-63
2022/03/09 04:50:44;;;;;;;14.48;8.30;;;-3.40;49.70;;;;;;5029953;28;20245;-63
2022/03/09 04:53:10;;;;;;;17.90;9.43;;;-3.40;50.00;;;;;;5024441;28;20238;-63
2022/03/09 04:55:38;;;;;;;10.80;7.85;;;-3.30;50.30;;;;;;5021103;28;20190;-64
2022/03/09 04:58:06;;;;;;;14.95;8.90;;;-3.30;50.10;;;;;;5023725;28;20192;-63
2022/03/09 05:00:33;;;;;;;13.43;8.00;;;-3.30;50.00;;;;;;5033912;28;20179;-63
2022/03/09 05:03:00;;;;;;;17.88;8.30;;;-3.20;50.10;;;;;;5020905;28;20254;-64
2022/03/09 05:05:27;;;;;;;18.73;9.02;;;-3.30;50.50;;;;;;5015320;28;20223;-66
2022/03/09 05:07:54;;;;;;;15.68;8.93;;;-3.30;50.20;;;;;;5017104;28;20726;-63
2022/03/09 05:10:21;;;;;;;15.68;8.85;;;-3.30;49.90;;;;;;5015861;28;20263;-63
2022/03/09 05:12:48;;;;;;;12.43;7.35;;;-3.40;49.10;;;;;;5026284;28;20194;-63
2022/03/09 05:15:17;;;;;;;14.93;9.07;;;-3.50;48.30;;;;;;5015630;28;20226;-63
2022/03/09 05:17:45;;;;;;;15.05;8.75;;;-3.50;48.60;;;;;;5021321;28;20187;-63
2022/03/09 05:20:15;;;;;;;20.38;9.57;;;-3.50;49.10;;;;;;5033364;28;20191;-63
2022/03/09 05:22:43;;;;;;;17.60;9.52;;;-3.50;49.60;;;;;;5029730;28;20211;-63
2022/03/09 05:25:10;;;;;;;13.75;9.52;;;-3.50;49.80;;;;;;5033082;28;20187;-64
2022/03/09 05:27:38;;;;;;;15.48;9.27;;;-3.50;49.70;;;;;;5035303;28;20238;-63
2022/03/09 05:30:08;;;;;;;15.18;9.07;;;-3.50;49.40;;;;;;5032824;28;20206;-64
2022/03/09 05:32:41;;;;;;;13.82;8.23;;;-3.50;49.10;;;;;;5026998;28;20192;-63
2022/03/09 05:35:10;;;;;;;15.10;8.25;;;-3.50;48.90;;;;;;5019871;28;20187;-63
2022/03/09 05:37:38;;;;;;;16.90;9.52;;;-3.50;48.90;;;;;;5015038;28;20203;-64
2022/03/09 05:40:08;;;;;;;20.85;11.88;;;-3.50;48.70;;;;;;5032095;28;20198;-63
2022/03/09 05:42:35;;;;;;;18.88;11.65;;;-3.50;49.40;;;;;;5034758;28;20194;-64
2022/03/09 05:45:03;;;;;;;23.63;13.80;;;-3.50;49.60;;;;;;5016364;28;20188;-63
2022/03/09 05:47:30;;;;;;;21.35;11.25;;;-3.50;49.50;;;;;;5014997;28;20187;-63
2022/03/09 05:49:59;;;;;;;21.85;11.70;;;-3.40;49.60;;;;;;5029115;28;20197;-63
2022/03/09 05:52:28;;;;;;;20.17;11.32;;;-3.50;49.40;;;;;;5014727;28;20271;-63
2022/03/09 05:54:55;;;;;;;20.60;10.95;;;-3.40;49.70;;;;;;5015807;28;20215;-64
2022/03/09 05:57:23;;;;;;;18.67;10.57;;;-3.40;49.80;;;;;;5034076;28;20296;-64
2022/03/09 05:59:53;;;;;;;18.60;8.93;;;-3.40;49.60;;;;;;5019536;28;20188;-64
2022/03/09 06:02:21;;;;;;;14.73;9.85;;;-3.30;49.90;;;;;;5032211;28;20198;-63
2022/03/09 06:04:48;;;;;;;13.50;9.13;;;-3.30;50.10;;;;;;5030560;28;20208;-64
2022/03/09 06:07:16;;;;;;;20.70;12.32;;;-3.30;50.20;;;;;;5014532;28;20195;-63
2022/03/09 06:09:44;;;;;;;18.85;12.13;;;-3.20;50.50;;;;;;5027593;28;20190;-63
2022/03/09 06:12:11;;;;;;;44.78;22.40;;;-3.20;50.30;;;;;;5033889;28;20276;-64
2022/03/09 06:14:38;;;;;;;28.50;16.25;;;-3.10;50.90;;;;;;5021900;28;20219;-63
2022/03/09 06:17:06;;;;;;;22.52;13.27;;;-3.10;51.90;;;;;;5013967;28;21105;-64
2022/03/09 06:19:33;;;;;;;24.73;14.77;;;-2.90;52.40;;;;;;5023288;28;20184;-64
2022/03/09 06:22:00;;;;;;;21.33;12.52;;;-2.80;52.60;;;;;;5028320;28;20236;-64
2022/03/09 06:24:32;;;;;;;23.08;14.18;;;-2.70;52.10;;;;;;5014792;28;20748;-63
2022/03/09 06:26:59;;;;;;;19.05;12.13;;;-2.70;51.80;;;;;;5013994;28;20192;-63
2022/03/09 06:29:26;;;;;;;20.77;10.85;;;-2.60;51.70;;;;;;5021973;28;20286;-63
2022/03/09 06:31:53;;;;;;;16.17;10.48;;;-2.40;51.40;;;;;;5022660;28;20219;-64
2022/03/09 06:34:21;;;;;;;15.45;9.70;;;-2.30;51.20;;;;;;5020677;28;20189;-63
2022/03/09 06:36:48;;;;;;;15.80;9.25;;;-2.20;51.40;;;;;;5033849;28;20277;-63
2022/03/09 06:39:16;;;;;;;14.73;8.55;;;-2.10;52.50;;;;;;5024772;28;20562;-63
2022/03/09 06:41:46;;;;;;;15.95;8.90;;;-1.90;53.00;;;;;;5031715;28;20230;-63
2022/03/09 06:44:15;;;;;;;18.63;9.80;;;-1.70;52.60;;;;;;5028383;28;20214;-63
2022/03/09 06:46:43;;;;;;;18.55;10.52;;;-1.40;52.20;;;;;;5033341;28;20237;-63
2022/03/09 06:49:10;;;;;;;14.57;7.65;;;-1.10;51.80;;;;;;5028217;28;20192;-64
2022/03/09 06:51:37;;;;;;;13.65;8.32;;;-0.80;50.50;;;;;;5013646;28;20219;-64
2022/03/09 06:54:04;;;;;;;11.20;7.45;;;-0.30;50.00;;;;;;5013902;28;20219;-64
2022/03/09 06:56:31;;;;;;;12.40;7.70;;;0.20;48.90;;;;;;5022775;28;20183;-64
2022/03/09 06:58:59;;;;;;;14.98;8.35;;;0.80;47.70;;;;;;5029035;28;20220;-63
2022/03/09 07:01:31;;;;;;;15.10;9.90;;;1.40;46.10;;;;;;5021098;28;20233;-63
2022/03/09 07:03:58;;;;;;;14.80;8.70;;;1.90;44.60;;;;;;5030307;28;20285;-65
2022/03/09 07:06:25;;;;;;;14.55;8.90;;;2.60;43.80;;;;;;5033089;28;20191;-64
2022/03/09 07:08:52;;;;;;;14.90;10.10;;;3.50;43.00;;;;;;5016168;28;20187;-64
2022/03/09 07:11:18;;;;;;;14.35;8.93;;;4.60;40.20;;;;;;5032325;28;20183;-64
2022/03/09 07:13:45;;;;;;;14.07;9.02;;;5.50;36.80;;;;;;5032812;28;20191;-64
2022/03/09 07:16:14;;;;;;;14.85;9.27;;;6.50;34.70;;;;;;5025775;28;20701;-64
2022/03/09 07:18:41;;;;;;;13.65;8.70;;;7.20;31.90;;;;;;5031201;28;20245;-64
2022/03/09 07:21:08;;;;;;;17.05;10.38;;;8.00;30.50;;;;;;5012842;28;20195;-64
2022/03/09 07:23:35;;;;;;;17.23;10.25;;;8.80;29.00;;;;;;5012438;28;20216;-64
2022/03/09 07:26:02;;;;;;;13.77;9.07;;;9.50;28.30;;;;;;5031262;28;20198;-64
2022/03/09 07:28:29;;;;;;;12.07;8.85;;;10.60;27.00;;;;;;5029714;28;20188;-64
2022/03/09 07:30:58;;;;;;;12.68;8.98;;;12.00;25.40;;;;;;5014328;28;20188;-65
2022/03/09 07:33:27;;;;;;;12.07;9.68;;;13.10;24.30;;;;;;5011289;28;20196;-62
2022/03/09 07:35:56;;;;;;;11.68;8.32;;;14.40;23.30;;;;;;5011703;28;20191;-62
2022/03/09 07:38:23;;;;;;;11.63;8.68;;;15.60;21.70;;;;;;5021217;28;20655;-62
2022/03/09 07:40:50;;;;;;;11.57;9.05;;;16.80;21.20;;;;;;5031668;28;20194;-63
2022/03/09 07:43:17;;;;;;;15.20;10.98;;;18.00;20.20;;;;;;5030757;28;20191;-64
2022/03/09 07:45:44;;;;;;;10.32;9.13;;;19.30;20.00;;;;;;5031062;28;20619;-62
2022/03/09 07:48:16;;;;;;;12.80;9.83;;;20.50;18.10;;;;;;5021042;28;20188;-63
2022/03/09 07:50:45;;;;;;;13.50;11.40;;;21.50;16.20;;;;;;5010988;28;20466;-62
2022/03/09 07:53:12;;;;;;;11.20;10.00;;;22.10;15.60;;;;;;5019600;28;20465;-66
2022/03/09 07:55:41;;;;;;;11.53;10.33;;;22.50;15.10;;;;;;5025414;28;20446;-63
2022/03/09 07:58:08;;;;;;;14.27;11.27;;;23.30;15.80;;;;;;5029910;28;20516;-66
2022/03/09 08:00:35;;;;;;;12.40;10.23;;;24.10;14.80;;;;;;5025676;28;20438;-65
2022/03/09 08:03:02;;;;;;;12.53;9.90;;;24.90;13.80;;;;;;5020209;28;20442;-63
2022/03/09 08:05:29;;;;;;;15.90;9.93;;;25.60;13.30;;;;;;5019675;28;20848;-62
2022/03/09 08:07:57;;;;;;;12.77;9.57;;;26.20;12.10;;;;;;5031930;28;20448;-63
2022/03/09 08:10:24;;;;;;;10.60;9.50;;;26.20;11.00;;;;;;5031564;28;20961;-64
2022/03/09 08:12:52;;;;;;;10.77;9.13;;;26.70;12.10;;;;;;5027898;28;20442;-64
2022/03/09 08:15:19;;;;;;;12.67;10.43;;;27.50;11.30;;;;;;5016518;28;20486;-63
2022/03/09 08:17:46;;;;;;;14.10;9.80;;;28.30;11.70;;;;;;5019907;28;20445;-63
2022/03/09 08:20:13;;;;;;;12.50;9.90;;;29.00;9.70;;;;;;5022448;28;20434;-63
2022/03/09 08:22:41;;;;;;;10.33;9.13;;;29.60;9.00;;;;;;5033617;28;20529;-63
2022/03/09 08:25:10;;;;;;;13.43;9.20;;;30.30;9.70;;;;;;5016317;28;20524;-64
2022/03/09 08:27:37;;;;;;;9.83;8.27;;;30.80;9.40;;;;;;5017018;28;20435;-64
2022/03/09 08:30:05;;;;;;;11.13;10.03;;;31.10;8.50;;;;;;5030018;28;20938;-63
2022/03/09 08:32:32;;;;;;;11.00;9.27;;;31.70;8.00;;;;;;5022146;28;20442;-64
2022/03/09 08:34:59;;;;;;;12.40;9.67;;;32.30;8.70;;;;;;5036018;28;20506;-63
2022/03/09 08:37:26;;;;;;;9.73;8.73;;;32.80;8.10;;;;;;5030561;28;20857;-63
2022/03/09 08:39:53;;;;;;;10.30;9.20;;;33.30;6.90;;;;;;5016282;28;20495;-64
2022/03/09 08:42:21;;;;;;;12.20;9.90;;;33.60;6.90;;;;;;5019177;28;20487;-64
2022/03/09 08:44:49;;;;;;;10.07;8.97;;;34.00;7.00;;;;;;5034974;28;20454;-64
2022/03/09 08:47:16;;;;;;;9.93;9.00;;;34.80;7.00;;;;;;5029303;28;20995;-63
2022/03/09 08:49:43;;;;;;;10.73;8.90;;;35.60;6.20;;;;;;5015795;28;20485;-63
2022/03/09 08:52:12;;;;;;;11.33;9.93;;;35.90;6.00;;;;;;5020035;28;20506;-63
2022/03/09 08:54:40;;;;;;;10.80;8.60;;;36.30;5.70;;;;;;5016691;28;20484;-63
2022/03/09 08:57:08;;;;;;;11.17;9.50;;;36.80;5.90;;;;;;5033176;28;20480;-64
2022/03/09 08:59:36;;;;;;;10.30;9.30;;;36.90;5.10;;;;;;5035647;28;20448;-64
2022/03/09 09:02:08;;;;;;;11.60;10.50;;;37.20;5.30;;;;;;5018283;28;20441;-64
2022/03/09 09:04:34;;;;;;;14.93;8.90;;;37.80;5.00;;;;;;5015826;28;20484;-64
2022/03/09 09:07:01;;;;;;;10.17;9.33;;;38.20;4.60;;;;;;5030007;28;20492;-63
2022/03/09 09:09:29;;;;;;;10.90;9.80;;;38.00;4.40;;;;;;5035381;28;20449;-64
2022/03/09 09:11:56;;;;;;;9.93;9.00;;;38.00;4.40;;;;;;5019814;28;20435;-64
2022/03/09 09:14:23;;;;;;;11.23;10.07;;;38.50;4.80;;;;;;5015353;28;20466;-64
2022/03/09 09:16:52;;;;;;;10.97;9.97;;;39.00;4.80;;;;;;5034405;28;20441;-65
2022/03/09 09:19:19;;;;;;;11.03;9.70;;;39.70;4.50;;;;;;5035171;28;20827;-64
2022/03/09 09:21:47;;;;;;;12.43;10.70;;;40.20;3.70;;;;;;5016053;28;20501;-64
2022/03/09 09:24:14;;;;;;;11.00;10.00;;;40.50;3.90;;;;;;5023542;28;20543;-64
2022/03/09 09:26:41;;;;;;;10.13;9.23;;;40.80;3.70;;;;;;5035027;28;20932;-65
2022/03/09 09:29:09;;;;;;;10.40;9.30;;;41.10;4.10;;;;;;5025746;28;20487;-67
2022/03/09 09:31:36;;;;;;;10.07;9.13;;;41.80;4.10;;;;;;5015333;28;20531;-64
2022/03/09 09:34:04;;;;;;;11.13;8.63;;;42.10;2.90;;;;;;5022278;28;20442;-64
2022/03/09 09:36:31;;;;;;;8.50;7.70;;;42.20;3.10;;;;;;5034717;28;20445;-64
2022/03/09 09:38:58;;;;;;;11.10;8.43;;;42.50;2.80;;;;;;5028225;28;20434;-64
2022/03/09 09:41:26;;;;;;;9.90;9.00;;;42.90;3.10;;;;;;5034585;28;20445;-64
2022/03/09 09:43:53;;;;;;;9.97;8.40;;;43.70;2.40;;;;;;5022719;28;20543;-64
2022/03/09 09:46:20;;;;;;;11.07;9.97;;;44.10;2.70;;;;;;5020519;28;20434;-65
2022/03/09 09:48:48;;;;;;;9.73;8.63;;;44.60;2.40;;;;;;5020155;28;20450;-64
2022/03/09 09:51:16;;;;;;;10.10;9.20;;;44.90;2.70;;;;;;5019109;28;20863;-64
2022/03/09 09:53:46;;;;;;;8.67;7.77;;;45.30;2.30;;;;;;5034527;28;20491;-64
2022/03/09 09:56:14;;;;;;;8.10;7.30;;;45.60;1.70;;;;;;5029232;28;20453;-65
2022/03/09 09:58:42;;;;;;;9.13;8.13;;;45.90;1.20;;;;;;5032943;28;20446;-64
2022/03/09 10:01:10;;;;;;;8.50;7.63;;;46.00;1.30;;;;;;5031356;28;20920;-64
2022/03/09 10:03:37;;;;;;;7.50;6.80;;;46.30;2.10;;;;;;5030668;28;20495;-64
2022/03/09 10:06:11;;;;;;;8.37;7.60;;;46.50;1.00;;;;;;5031967;28;20481;-65
2022/03/09 10:08:40;;;;;;;6.97;6.27;;;46.70;1.00;;;;;;5031479;28;20435;-64
2022/03/09 10:11:07;;;;;;;9.50;7.57;;;47.00;1.00;;;;;;5029321;28;20449;-63
2022/03/09 10:13:38;;;;;;;8.50;7.73;;;47.20;1.00;;;;;;5032495;28;20507;-64
2022/03/09 10:16:13;;;;;;;9.80;8.90;;;47.00;1.00;;;;;;5029848;28;20525;-64
2022/03/09 10:18:41;;;;;;;9.27;8.37;;;47.30;1.00;;;;;;5032112;28;21706;-64
2022/03/09 10:21:13;;;;;;;8.90;8.10;;;47.50;1.00;;;;;;5032313;28;20445;-67
2022/03/09 10:23:55;;;;;;;9.37;8.57;;;47.30;1.00;;;;;;5028502;28;20464;-64
2022/03/09 10:26:25;;;;;;;10.03;9.13;;;47.00;1.00;;;;;;5030643;28;20438;-64
2022/03/09 10:28:56;;;;;;;12.77;11.67;;;47.50;1.00;;;;;;5029930;28;20446;-67
2022/03/09 10:31:38;;;;;;;9.00;8.20;;;48.00;1.00;;;;;;5030311;28;20438;-64
2022/03/09 10:34:10;;;;;;;10.97;8.80;;;48.00;1.00;;;;;;5031157;28;20442;-64
2022/03/09 10:36:38;;;;;;;9.83;8.70;;;48.30;1.00;;;;;;5030040;28;20460;-64
2022/03/09 10:39:17;;;;;;;10.43;9.10;;;48.50;1.00;;;;;;5032421;28;20457;-64
2022/03/09 10:41:45;;;;;;;10.13;9.23;;;48.80;1.00;;;;;;5029846;28;20478;-64
2022/03/09 10:44:12;;;;;;;10.60;9.57;;;48.90;1.00;;;;;;5031546;28;20448;-64
2022/03/09 10:46:44;;;;;;;9.63;8.83;;;49.00;1.00;;;;;;5032109;28;20817;-65
2022/03/09 10:49:12;;;;;;;9.40;8.60;;;49.30;1.00;;;;;;5029891;28;20445;-63
2022/03/09 10:51:41;;;;;;;10.43;9.43;;;49.40;1.00;;;;;;5032240;28;20874;-64
2022/03/09 10:54:16;;;;;;;11.13;9.60;;;49.50;1.00;;;;;;5030262;28;20775;-63
2022/03/09 10:56:45;;;;;;;10.83;9.93;;;49.30;1.00;;;;;;5030031;28;20455;-64
2022/03/09 10:59:15;;;;;;;11.30;10.30;;;49.20;1.00;;;;;;5026161;28;20443;-64
2022/03/09 11:01:43;;;;;;;10.13;9.20;;;49.40;1.00;;;;;;5014127;28;20935;-64
2022/03/09 11:04:15;;;;;;;11.30;10.40;;;49.60;1.00;;;;;;5033189;28;20434;-64
2022/03/09 11:06:46;;;;;;;11.00;10.00;;;49.90;1.00;;;;;;5032471;28;20442;-68
2022/03/09 11:09:16;;;;;;;11.23;10.33;;;50.00;1.00;;;;;;5013529;28;20445;-64
2022/03/09 11:11:46;;;;;;;11.33;10.30;;;49.70;1.00;;;;;;5013281;28;20439;-69
2022/03/09 11:14:14;;;;;;;10.83;9.93;;;49.70;1.00;;;;;;5017022;28;20792;-64
2022/03/09 11:16:42;;;;;;;11.43;10.53;;;49.70;1.00;;;;;;5032056;28;20446;-63
2022/03/09 11:19:10;;;;;;;12.17;11.17;;;49.60;1.00;;;;;;5033120;28;20441;-63
2022/03/09 11:21:38;;;;;;;12.27;11.20;;;49.70;1.00;;;;;;5014305;28;20864;-63
2022/03/09 11:24:10;;;;;;;11.57;10.57;;;49.40;1.00;;;;;;5013054;28;20501;-63
2022/03/09 11:26:41;;;;;;;11.10;10.20;;;49.20;1.00;;;;;;5025861;28;20478;-63
2022/03/09 11:29:12;;;;;;;11.83;10.80;;;49.10;1.00;;;;;;5032814;28;20438;-64
2022/03/09 11:31:47;;;;;;;12.10;11.10;;;49.50;1.00;;;;;;5032990;28;20553;-64
2022/03/09 11:34:35;;;;;;;13.07;11.97;;;49.40;1.00;;;;;;5032639;28;20785;-63
2022/03/09 11:37:05;;;;;;;12.57;11.50;;;49.30;1.00;;;;;;5032520;28;20495;-63
2022/03/09 11:39:32;;;;;;;12.40;11.17;;;48.90;1.00;;;;;;5013450;28;20844;-64
2022/03/09 11:42:31;;;;;;;12.87;11.67;;;48.70;1.00;;;;;;5013253;28;21094;-63
2022/03/09 11:45:30;;;;;;;11.57;10.67;;;48.50;1.00;;;;;;5013079;28;20486;-64
2022/03/09 11:48:00;;;;;;;12.47;11.37;;;48.50;1.00;;;;;;5012920;28;20466;-63
2022/03/09 11:50:29;;;;;;;14.53;11.40;;;48.40;1.00;;;;;;5012960;28;20439;-64
2022/03/09 11:53:00;;;;;;;13.63;12.43;;;48.70;1.00;;;;;;5021382;28;20452;-63
2022/03/09 11:55:27;;;;;;;12.97;11.90;;;48.50;1.00;;;;;;5032840;28;20833;-64
2022/03/09 11:58:21;;;;;;;13.20;12.07;;;48.30;1.00;;;;;;5023448;28;20841;-64
2022/03/09 12:01:07;;;;;;;12.37;11.27;;;48.70;1.00;;;;;;5012913;28;20434;-64
2022/03/09 12:03:37;;;;;;;14.30;13.00;;;48.60;1.00;;;;;;5028678;28;20947;-63
2022/03/09 12:06:04;;;;;;;14.73;13.43;;;48.80;1.00;;;;;;5032468;28;20485;-63
2022/03/09 12:08:46;;;;;;;15.30;13.90;;;48.90;1.00;;;;;;5014016;28;20446;-66
2022/03/09 12:11:13;;;;;;;14.87;13.50;;;48.80;1.00;;;;;;5031255;28;20438;-63
2022/03/09 12:13:47;;;;;;;13.63;12.50;;;49.00;1.00;;;;;;5014807;28;20802;-63
2022/03/09 12:16:26;;;;;;;12.93;11.83;;;49.00;1.00;;;;;;5012363;28;20438;-63
2022/03/09 12:19:14;;;;;;;13.20;12.10;;;48.70;1.00;;;;;;5026594;28;20838;-64
2022/03/09 12:22:04;;;;;;;15.73;12.43;;;48.20;1.00;;;;;;5032024;28;20912;-65
2022/03/09 12:24:35;;;;;;;14.07;12.87;;;48.20;1.00;;;;;;5013409;28;20434;-63
2022/03/09 12:27:03;;;;;;;13.97;12.73;;;48.00;1.00;;;;;;5028491;28;20448;-63
2022/03/09 12:29:40;;;;;;;14.00;12.80;;;48.10;1.00;;;;;;5030932;28;20495;-64
2022/03/09 12:32:14;;;;;;;14.23;12.93;;;47.90;1.00;;;;;;5027653;28;20467;-64
2022/03/09 12:34:43;;;;;;;13.93;12.73;;;47.80;1.00;;;;;;5017934;28;20449;-64
2022/03/09 12:37:12;;;;;;;15.60;14.00;;;47.80;1.00;;;;;;5031699;28;20577;-65
2022/03/09 12:39:40;;;;;;;15.03;13.60;;;47.80;1.00;;;;;;5023558;28;20442;-63
2022/03/09 12:42:07;;;;;;;14.20;12.90;;;47.60;1.00;;;;;;5015863;28;20489;-64
2022/03/09 12:44:36;;;;;;;13.53;12.27;;;47.30;1.00;;;;;;5024896;28;20520;-64
2022/03/09 12:47:05;;;;;;;14.27;13.03;;;47.10;1.00;;;;;;5017444;28;20994;-63